sensor_id;sensor_type;location;lat;lon;timestamp;P1;durP1;ratioP1;P2;durP2;ratioP2
4885;SDS011;2457;51.788;6.136;2023-03-01T00:01:17;5.10;;;2.63;;
4885;SDS011;2457;51.788;6.136;2023-03-01T00:03:45;5.97;;;3.10;;
4885;SDS011;2457;51.788;6.136;2023-03-01T00:06:12;6.87;;;3.00;;
4885;SDS011;2457;51.788;6.136;2023-03-01T00:08:40;7.53;;;3.30;;
4885;SDS011;2457;51.788;6.136;2023-03-01T00:11:21;6.37;;;3.47;;
4885;SDS011;2457;51.788;6.136;2023-03-01T00:13:49;7.23;;;3.33;;
4885;SDS011;2457;51.788;6.136;2023-03-01T00:16:21;6.20;;;3.80;;
4885;SDS011;2457;51.788;6.136;2023-03-01T00:18:49;6.70;;;3.47;;
4885;SDS011;2457;51.788;6.136;2023-03-01T00:21:17;9.63;;;3.57;;
4885;SDS011;2457;51.788;6.136;2023-03-01T00:23:44;7.50;;;3.40;;
4885;SDS011;2457;51.788;6.136;2023-03-01T00:26:12;7.50;;;3.43;;
4885;SDS011;2457;51.788;6.136;2023-03-01T00:28:40;8.47;;;3.80;;
4885;SDS011;2457;51.788;6.136;2023-03-01T00:31:09;6.43;;;3.43;;
4885;SDS011;2457;51.788;6.136;2023-03-01T00:33:37;5.97;;;3.40;;
4885;SDS011;2457;51.788;6.136;2023-03-01T00:36:04;5.60;;;3.20;;
4885;SDS011;2457;51.788;6.136;2023-03-01T00:38:37;7.33;;;3.70;;
4885;SDS011;2457;51.788;6.136;2023-03-01T00:41:07;8.07;;;3.13;;
4885;SDS011;2457;51.788;6.136;2023-03-01T00:43:35;6.47;;;3.53;;
4885;SDS011;2457;51.788;6.136;2023-03-01T00:46:06;6.50;;;3.13;;
4885;SDS011;2457;51.788;6.136;2023-03-01T00:48:34;5.10;;;2.87;;
4885;SDS011;2457;51.788;6.136;2023-03-01T00:51:10;8.73;;;3.80;;
4885;SDS011;2457;51.788;6.136;2023-03-01T00:53:33;6.70;;;3.83;;
4885;SDS011;2457;51.788;6.136;2023-03-01T00:56:01;9.40;;;4.60;;
4885;SDS011;2457;51.788;6.136;2023-03-01T00:58:28;8.30;;;4.90;;
4885;SDS011;2457;51.788;6.136;2023-03-01T01:00:55;7.60;;;4.37;;
4885;SDS011;2457;51.788;6.136;2023-03-01T01:03:23;7.00;;;3.73;;
4885;SDS011;2457;51.788;6.136;2023-03-01T01:05:51;5.80;;;3.20;;
4885;SDS011;2457;51.788;6.136;2023-03-01T01:08:19;5.63;;;2.80;;
4885;SDS011;2457;51.788;6.136;2023-03-01T01:10:47;5.53;;;3.00;;
4885;SDS011;2457;51.788;6.136;2023-03-01T01:13:14;7.60;;;3.33;;
4885;SDS011;2457;51.788;6.136;2023-03-01T01:15:41;6.17;;;3.50;;
4885;SDS011;2457;51.788;6.136;2023-03-01T01:18:09;5.80;;;3.20;;
4885;SDS011;2457;51.788;6.136;2023-03-01T01:20:36;6.43;;;3.27;;
4885;SDS011;2457;51.788;6.136;2023-03-01T01:23:05;5.70;;;3.10;;
4885;SDS011;2457;51.788;6.136;2023-03-01T01:25:34;8.07;;;3.60;;
4885;SDS011;2457;51.788;6.136;2023-03-01T01:28:02;11.10;;;3.90;;
4885;SDS011;2457;51.788;6.136;2023-03-01T01:30:29;7.47;;;3.83;;
4885;SDS011;2457;51.788;6.136;2023-03-01T01:32:56;6.87;;;3.20;;
4885;SDS011;2457;51.788;6.136;2023-03-01T01:35:24;6.70;;;3.90;;
4885;SDS011;2457;51.788;6.136;2023-03-01T01:37:51;7.20;;;3.70;;
4885;SDS011;2457;51.788;6.136;2023-03-01T01:40:18;6.17;;;3.30;;
4885;SDS011;2457;51.788;6.136;2023-03-01T01:42:45;5.60;;;3.10;;
4885;SDS011;2457;51.788;6.136;2023-03-01T01:45:26;8.20;;;3.40;;
4885;SDS011;2457;51.788;6.136;2023-03-01T01:47:54;7.37;;;3.40;;
4885;SDS011;2457;51.788;6.136;2023-03-01T01:50:22;7.67;;;3.60;;
4885;SDS011;2457;51.788;6.136;2023-03-01T01:52:50;9.87;;;3.33;;
4885;SDS011;2457;51.788;6.136;2023-03-01T01:55:20;5.80;;;3.20;;
4885;SDS011;2457;51.788;6.136;2023-03-01T01:57:54;7.07;;;4.17;;
4885;SDS011;2457;51.788;6.136;2023-03-01T02:00:23;7.17;;;3.47;;
4885;SDS011;2457;51.788;6.136;2023-03-01T02:02:52;6.93;;;3.63;;
4885;SDS011;2457;51.788;6.136;2023-03-01T02:05:38;6.97;;;3.80;;
4885;SDS011;2457;51.788;6.136;2023-03-01T02:07:53;7.10;;;3.43;;
4885;SDS011;2457;51.788;6.136;2023-03-01T02:10:21;9.07;;;3.50;;
4885;SDS011;2457;51.788;6.136;2023-03-01T02:12:48;5.50;;;3.43;;
4885;SDS011;2457;51.788;6.136;2023-03-01T02:15:16;5.70;;;3.30;;
4885;SDS011;2457;51.788;6.136;2023-03-01T02:17:43;6.60;;;3.00;;
4885;SDS011;2457;51.788;6.136;2023-03-01T02:20:16;6.30;;;3.30;;
4885;SDS011;2457;51.788;6.136;2023-03-01T02:22:43;9.00;;;3.47;;
4885;SDS011;2457;51.788;6.136;2023-03-01T02:30:14;6.23;;;3.20;;
4885;SDS011;2457;51.788;6.136;2023-03-01T02:32:42;6.30;;;3.80;;
4885;SDS011;2457;51.788;6.136;2023-03-01T02:35:10;8.77;;;3.93;;
4885;SDS011;2457;51.788;6.136;2023-03-01T02:37:38;7.43;;;3.73;;
4885;SDS011;2457;51.788;6.136;2023-03-01T02:40:06;8.83;;;3.43;;
4885;SDS011;2457;51.788;6.136;2023-03-01T02:42:39;9.93;;;3.83;;
4885;SDS011;2457;51.788;6.136;2023-03-01T02:45:05;6.10;;;3.37;;
4885;SDS011;2457;51.788;6.136;2023-03-01T02:47:33;6.93;;;3.37;;
4885;SDS011;2457;51.788;6.136;2023-03-01T02:50:00;11.10;;;3.57;;
4885;SDS011;2457;51.788;6.136;2023-03-01T02:52:30;6.10;;;3.30;;
4885;SDS011;2457;51.788;6.136;2023-03-01T02:55:03;6.47;;;3.57;;
4885;SDS011;2457;51.788;6.136;2023-03-01T02:57:31;6.93;;;3.63;;
4885;SDS011;2457;51.788;6.136;2023-03-01T02:59:59;6.60;;;3.50;;
4885;SDS011;2457;51.788;6.136;2023-03-01T03:02:29;7.10;;;3.83;;
4885;SDS011;2457;51.788;6.136;2023-03-01T03:05:06;5.87;;;3.50;;
4885;SDS011;2457;51.788;6.136;2023-03-01T03:07:35;5.43;;;3.83;;
4885;SDS011;2457;51.788;6.136;2023-03-01T03:10:03;6.20;;;3.50;;
4885;SDS011;2457;51.788;6.136;2023-03-01T03:12:30;6.87;;;3.33;;
4885;SDS011;2457;51.788;6.136;2023-03-01T03:14:58;8.53;;;3.90;;
4885;SDS011;2457;51.788;6.136;2023-03-01T03:17:25;6.70;;;3.90;;
4885;SDS011;2457;51.788;6.136;2023-03-01T03:19:53;5.30;;;3.53;;
4885;SDS011;2457;51.788;6.136;2023-03-01T03:22:20;5.90;;;3.47;;
4885;SDS011;2457;51.788;6.136;2023-03-01T03:24:47;6.70;;;3.90;;
4885;SDS011;2457;51.788;6.136;2023-03-01T03:27:14;7.60;;;3.60;;
4885;SDS011;2457;51.788;6.136;2023-03-01T03:29:41;8.97;;;3.80;;
4885;SDS011;2457;51.788;6.136;2023-03-01T03:32:09;7.40;;;3.57;;
4885;SDS011;2457;51.788;6.136;2023-03-01T03:34:36;7.90;;;4.93;;
4885;SDS011;2457;51.788;6.136;2023-03-01T03:37:03;8.20;;;4.37;;
4885;SDS011;2457;51.788;6.136;2023-03-01T03:39:32;6.97;;;3.57;;
4885;SDS011;2457;51.788;6.136;2023-03-01T03:42:01;8.30;;;3.97;;
4885;SDS011;2457;51.788;6.136;2023-03-01T03:44:28;7.13;;;4.30;;
4885;SDS011;2457;51.788;6.136;2023-03-01T03:46:55;7.50;;;3.80;;
4885;SDS011;2457;51.788;6.136;2023-03-01T03:49:22;7.93;;;4.10;;
4885;SDS011;2457;51.788;6.136;2023-03-01T03:51:50;7.00;;;3.90;;
4885;SDS011;2457;51.788;6.136;2023-03-01T03:54:17;6.40;;;3.70;;
4885;SDS011;2457;51.788;6.136;2023-03-01T03:56:44;6.00;;;3.37;;
4885;SDS011;2457;51.788;6.136;2023-03-01T03:59:12;8.27;;;3.80;;
4885;SDS011;2457;51.788;6.136;2023-03-01T04:01:39;7.67;;;4.00;;
4885;SDS011;2457;51.788;6.136;2023-03-01T04:04:06;7.50;;;4.07;;
4885;SDS011;2457;51.788;6.136;2023-03-01T04:06:34;6.70;;;4.17;;
4885;SDS011;2457;51.788;6.136;2023-03-01T04:09:01;8.23;;;4.00;;
4885;SDS011;2457;51.788;6.136;2023-03-01T04:11:28;7.37;;;4.17;;
4885;SDS011;2457;51.788;6.136;2023-03-01T04:13:57;7.93;;;4.23;;
4885;SDS011;2457;51.788;6.136;2023-03-01T04:16:25;7.80;;;3.90;;
4885;SDS011;2457;51.788;6.136;2023-03-01T04:18:52;6.17;;;4.07;;
4885;SDS011;2457;51.788;6.136;2023-03-01T04:21:19;6.33;;;3.93;;
4885;SDS011;2457;51.788;6.136;2023-03-01T04:23:47;7.93;;;4.00;;
4885;SDS011;2457;51.788;6.136;2023-03-01T04:26:14;8.90;;;4.43;;
4885;SDS011;2457;51.788;6.136;2023-03-01T04:28:42;7.20;;;4.20;;
4885;SDS011;2457;51.788;6.136;2023-03-01T04:31:12;6.20;;;3.77;;
4885;SDS011;2457;51.788;6.136;2023-03-01T04:33:45;8.67;;;4.07;;
4885;SDS011;2457;51.788;6.136;2023-03-01T04:36:09;7.10;;;3.93;;
4885;SDS011;2457;51.788;6.136;2023-03-01T04:38:37;8.43;;;4.37;;
4885;SDS011;2457;51.788;6.136;2023-03-01T04:41:05;7.20;;;4.10;;
4885;SDS011;2457;51.788;6.136;2023-03-01T04:43:33;10.40;;;4.90;;
4885;SDS011;2457;51.788;6.136;2023-03-01T04:46:01;8.90;;;4.30;;
4885;SDS011;2457;51.788;6.136;2023-03-01T04:48:29;8.70;;;4.30;;
4885;SDS011;2457;51.788;6.136;2023-03-01T04:50:58;9.00;;;5.50;;
4885;SDS011;2457;51.788;6.136;2023-03-01T04:53:25;6.20;;;3.90;;
4885;SDS011;2457;51.788;6.136;2023-03-01T04:55:53;12.63;;;3.87;;
4885;SDS011;2457;51.788;6.136;2023-03-01T04:58:29;6.87;;;4.17;;
4885;SDS011;2457;51.788;6.136;2023-03-01T05:00:53;7.40;;;4.43;;
4885;SDS011;2457;51.788;6.136;2023-03-01T05:03:21;8.80;;;4.00;;
4885;SDS011;2457;51.788;6.136;2023-03-01T05:05:49;8.57;;;4.00;;
4885;SDS011;2457;51.788;6.136;2023-03-01T05:08:16;11.40;;;4.10;;
4885;SDS011;2457;51.788;6.136;2023-03-01T05:10:45;7.87;;;4.60;;
4885;SDS011;2457;51.788;6.136;2023-03-01T05:13:13;7.07;;;4.03;;
4885;SDS011;2457;51.788;6.136;2023-03-01T05:15:42;7.60;;;4.03;;
4885;SDS011;2457;51.788;6.136;2023-03-01T05:18:09;6.00;;;3.60;;
4885;SDS011;2457;51.788;6.136;2023-03-01T05:20:37;8.00;;;4.03;;
4885;SDS011;2457;51.788;6.136;2023-03-01T05:23:05;6.57;;;4.20;;
4885;SDS011;2457;51.788;6.136;2023-03-01T05:25:33;9.83;;;4.67;;
4885;SDS011;2457;51.788;6.136;2023-03-01T05:28:01;6.80;;;4.17;;
4885;SDS011;2457;51.788;6.136;2023-03-01T05:30:31;6.70;;;3.87;;
4885;SDS011;2457;51.788;6.136;2023-03-01T05:32:59;9.00;;;4.20;;
4885;SDS011;2457;51.788;6.136;2023-03-01T05:35:26;8.03;;;4.10;;
4885;SDS011;2457;51.788;6.136;2023-03-01T05:37:53;6.53;;;4.13;;
4885;SDS011;2457;51.788;6.136;2023-03-01T05:40:22;8.20;;;4.57;;
4885;SDS011;2457;51.788;6.136;2023-03-01T05:42:52;9.33;;;3.73;;
4885;SDS011;2457;51.788;6.136;2023-03-01T05:45:19;7.97;;;4.30;;
4885;SDS011;2457;51.788;6.136;2023-03-01T05:47:47;9.00;;;4.20;;
4885;SDS011;2457;51.788;6.136;2023-03-01T05:50:20;7.30;;;4.30;;
4885;SDS011;2457;51.788;6.136;2023-03-01T05:52:49;8.20;;;4.47;;
4885;SDS011;2457;51.788;6.136;2023-03-01T05:55:16;8.40;;;4.60;;
4885;SDS011;2457;51.788;6.136;2023-03-01T05:57:44;8.43;;;4.00;;
4885;SDS011;2457;51.788;6.136;2023-03-01T06:00:12;6.90;;;3.97;;
4885;SDS011;2457;51.788;6.136;2023-03-01T06:02:39;9.27;;;4.57;;
4885;SDS011;2457;51.788;6.136;2023-03-01T06:05:07;8.00;;;4.30;;
4885;SDS011;2457;51.788;6.136;2023-03-01T06:07:35;7.37;;;4.47;;
4885;SDS011;2457;51.788;6.136;2023-03-01T06:10:02;9.17;;;4.40;;
4885;SDS011;2457;51.788;6.136;2023-03-01T06:12:31;8.43;;;5.20;;
4885;SDS011;2457;51.788;6.136;2023-03-01T06:14:59;8.50;;;4.70;;
4885;SDS011;2457;51.788;6.136;2023-03-01T06:17:28;5.50;;;3.53;;
4885;SDS011;2457;51.788;6.136;2023-03-01T06:19:55;9.30;;;5.00;;
4885;SDS011;2457;51.788;6.136;2023-03-01T06:22:22;8.33;;;4.37;;
4885;SDS011;2457;51.788;6.136;2023-03-01T06:24:50;11.10;;;4.43;;
4885;SDS011;2457;51.788;6.136;2023-03-01T06:27:17;7.10;;;4.30;;
4885;SDS011;2457;51.788;6.136;2023-03-01T06:29:44;7.03;;;4.33;;
4885;SDS011;2457;51.788;6.136;2023-03-01T06:32:12;10.27;;;4.77;;
4885;SDS011;2457;51.788;6.136;2023-03-01T06:34:39;6.40;;;3.80;;
4885;SDS011;2457;51.788;6.136;2023-03-01T06:37:06;12.13;;;4.63;;
4885;SDS011;2457;51.788;6.136;2023-03-01T06:39:34;9.20;;;5.20;;
4885;SDS011;2457;51.788;6.136;2023-03-01T06:42:01;7.80;;;4.83;;
4885;SDS011;2457;51.788;6.136;2023-03-01T06:44:28;10.47;;;5.23;;
4885;SDS011;2457;51.788;6.136;2023-03-01T06:46:55;7.57;;;4.30;;
4885;SDS011;2457;51.788;6.136;2023-03-01T06:49:23;7.37;;;4.50;;
4885;SDS011;2457;51.788;6.136;2023-03-01T06:51:50;11.93;;;4.70;;
4885;SDS011;2457;51.788;6.136;2023-03-01T06:54:17;8.03;;;4.50;;
4885;SDS011;2457;51.788;6.136;2023-03-01T06:56:46;8.63;;;4.43;;
4885;SDS011;2457;51.788;6.136;2023-03-01T06:59:13;8.60;;;4.83;;
4885;SDS011;2457;51.788;6.136;2023-03-01T07:01:41;10.63;;;4.50;;
4885;SDS011;2457;51.788;6.136;2023-03-01T07:04:08;8.33;;;4.60;;
4885;SDS011;2457;51.788;6.136;2023-03-01T07:06:36;8.10;;;4.27;;
4885;SDS011;2457;51.788;6.136;2023-03-01T07:09:03;7.93;;;4.47;;
4885;SDS011;2457;51.788;6.136;2023-03-01T07:11:30;8.37;;;4.63;;
4885;SDS011;2457;51.788;6.136;2023-03-01T07:13:57;9.90;;;4.90;;
4885;SDS011;2457;51.788;6.136;2023-03-01T07:16:26;9.57;;;4.93;;
4885;SDS011;2457;51.788;6.136;2023-03-01T07:18:53;8.33;;;4.20;;
4885;SDS011;2457;51.788;6.136;2023-03-01T07:21:21;12.03;;;4.40;;
4885;SDS011;2457;51.788;6.136;2023-03-01T07:23:48;9.33;;;4.87;;
4885;SDS011;2457;51.788;6.136;2023-03-01T07:26:15;7.30;;;4.50;;
4885;SDS011;2457;51.788;6.136;2023-03-01T07:28:42;8.23;;;4.60;;
4885;SDS011;2457;51.788;6.136;2023-03-01T07:31:10;8.60;;;5.20;;
4885;SDS011;2457;51.788;6.136;2023-03-01T07:33:37;8.80;;;4.17;;
4885;SDS011;2457;51.788;6.136;2023-03-01T07:36:05;9.20;;;4.70;;
4885;SDS011;2457;51.788;6.136;2023-03-01T07:38:32;9.03;;;4.97;;
4885;SDS011;2457;51.788;6.136;2023-03-01T07:41:00;9.00;;;4.53;;
4885;SDS011;2457;51.788;6.136;2023-03-01T07:43:31;9.23;;;4.67;;
4885;SDS011;2457;51.788;6.136;2023-03-01T07:45:59;7.20;;;4.47;;
4885;SDS011;2457;51.788;6.136;2023-03-01T07:48:27;10.80;;;5.40;;
4885;SDS011;2457;51.788;6.136;2023-03-01T07:50:54;11.70;;;5.40;;
4885;SDS011;2457;51.788;6.136;2023-03-01T07:53:21;8.03;;;5.10;;
4885;SDS011;2457;51.788;6.136;2023-03-01T07:55:49;8.40;;;4.63;;
4885;SDS011;2457;51.788;6.136;2023-03-01T07:58:16;10.40;;;4.50;;
4885;SDS011;2457;51.788;6.136;2023-03-01T08:00:43;9.17;;;4.60;;
4885;SDS011;2457;51.788;6.136;2023-03-01T08:03:10;6.60;;;3.60;;
4885;SDS011;2457;51.788;6.136;2023-03-01T08:05:37;8.20;;;4.73;;
4885;SDS011;2457;51.788;6.136;2023-03-01T08:08:05;7.20;;;4.20;;
4885;SDS011;2457;51.788;6.136;2023-03-01T08:10:32;10.87;;;5.27;;
4885;SDS011;2457;51.788;6.136;2023-03-01T08:12:59;8.40;;;4.60;;
4885;SDS011;2457;51.788;6.136;2023-03-01T08:15:26;9.07;;;4.57;;
4885;SDS011;2457;51.788;6.136;2023-03-01T08:17:54;11.47;;;4.50;;
4885;SDS011;2457;51.788;6.136;2023-03-01T08:20:21;7.50;;;4.60;;
4885;SDS011;2457;51.788;6.136;2023-03-01T08:22:48;8.77;;;4.73;;
4885;SDS011;2457;51.788;6.136;2023-03-01T08:25:15;12.43;;;5.50;;
4885;SDS011;2457;51.788;6.136;2023-03-01T08:27:43;12.57;;;5.77;;
4885;SDS011;2457;51.788;6.136;2023-03-01T08:30:10;10.50;;;5.17;;
4885;SDS011;2457;51.788;6.136;2023-03-01T08:32:38;9.00;;;4.90;;
4885;SDS011;2457;51.788;6.136;2023-03-01T08:35:05;7.67;;;4.20;;
4885;SDS011;2457;51.788;6.136;2023-03-01T08:37:33;10.93;;;4.90;;
4885;SDS011;2457;51.788;6.136;2023-03-01T08:40:00;8.50;;;4.63;;
4885;SDS011;2457;51.788;6.136;2023-03-01T08:42:29;8.53;;;4.40;;
4885;SDS011;2457;51.788;6.136;2023-03-01T08:44:56;9.10;;;5.07;;
4885;SDS011;2457;51.788;6.136;2023-03-01T08:47:24;12.67;;;4.33;;
4885;SDS011;2457;51.788;6.136;2023-03-01T08:49:52;9.90;;;4.90;;
4885;SDS011;2457;51.788;6.136;2023-03-01T08:52:19;7.80;;;4.23;;
4885;SDS011;2457;51.788;6.136;2023-03-01T08:54:47;9.10;;;4.10;;
4885;SDS011;2457;51.788;6.136;2023-03-01T08:57:15;9.37;;;4.30;;
4885;SDS011;2457;51.788;6.136;2023-03-01T08:59:42;9.97;;;3.93;;
4885;SDS011;2457;51.788;6.136;2023-03-01T09:02:11;6.73;;;3.93;;
4885;SDS011;2457;51.788;6.136;2023-03-01T09:04:39;8.00;;;4.40;;
4885;SDS011;2457;51.788;6.136;2023-03-01T09:07:06;8.40;;;3.80;;
4885;SDS011;2457;51.788;6.136;2023-03-01T09:09:34;5.70;;;3.33;;
4885;SDS011;2457;51.788;6.136;2023-03-01T09:12:02;8.03;;;3.60;;
4885;SDS011;2457;51.788;6.136;2023-03-01T09:14:29;19.03;;;3.37;;
4885;SDS011;2457;51.788;6.136;2023-03-01T09:16:57;7.23;;;4.00;;
4885;SDS011;2457;51.788;6.136;2023-03-01T09:19:24;7.03;;;3.40;;
4885;SDS011;2457;51.788;6.136;2023-03-01T09:21:51;7.17;;;3.63;;
4885;SDS011;2457;51.788;6.136;2023-03-01T09:24:24;6.47;;;3.90;;
4885;SDS011;2457;51.788;6.136;2023-03-01T09:26:47;7.40;;;4.20;;
4885;SDS011;2457;51.788;6.136;2023-03-01T09:29:15;6.80;;;3.87;;
4885;SDS011;2457;51.788;6.136;2023-03-01T09:31:43;9.33;;;4.03;;
4885;SDS011;2457;51.788;6.136;2023-03-01T09:34:10;6.10;;;4.00;;
4885;SDS011;2457;51.788;6.136;2023-03-01T09:36:38;8.17;;;4.00;;
4885;SDS011;2457;51.788;6.136;2023-03-01T09:39:08;7.87;;;3.50;;
4885;SDS011;2457;51.788;6.136;2023-03-01T09:41:46;9.20;;;4.60;;
4885;SDS011;2457;51.788;6.136;2023-03-01T09:46:58;7.80;;;4.00;;
4885;SDS011;2457;51.788;6.136;2023-03-01T09:49:27;8.70;;;4.03;;
4885;SDS011;2457;51.788;6.136;2023-03-01T09:54:25;9.13;;;4.10;;
4885;SDS011;2457;51.788;6.136;2023-03-01T09:59:23;7.77;;;3.63;;
4885;SDS011;2457;51.788;6.136;2023-03-01T10:01:59;8.53;;;4.50;;
4885;SDS011;2457;51.788;6.136;2023-03-01T10:04:38;7.30;;;3.63;;
4885;SDS011;2457;51.788;6.136;2023-03-01T10:09:45;7.03;;;3.90;;
4885;SDS011;2457;51.788;6.136;2023-03-01T10:12:14;7.13;;;3.90;;
4885;SDS011;2457;51.788;6.136;2023-03-01T10:14:44;8.00;;;3.53;;
4885;SDS011;2457;51.788;6.136;2023-03-01T10:19:41;6.80;;;3.47;;
4885;SDS011;2457;51.788;6.136;2023-03-01T10:22:13;7.93;;;3.90;;
4885;SDS011;2457;51.788;6.136;2023-03-01T10:24:36;6.73;;;3.50;;
4885;SDS011;2457;51.788;6.136;2023-03-01T10:27:09;8.30;;;4.33;;
4885;SDS011;2457;51.788;6.136;2023-03-01T10:32:10;7.10;;;3.83;;
4885;SDS011;2457;51.788;6.136;2023-03-01T10:34:38;9.43;;;4.17;;
4885;SDS011;2457;51.788;6.136;2023-03-01T10:39:34;6.90;;;3.53;;
4885;SDS011;2457;51.788;6.136;2023-03-01T10:42:02;8.80;;;3.90;;
4885;SDS011;2457;51.788;6.136;2023-03-01T10:47:16;6.90;;;3.47;;
4885;SDS011;2457;51.788;6.136;2023-03-01T10:49:49;8.30;;;4.00;;
4885;SDS011;2457;51.788;6.136;2023-03-01T10:52:17;7.33;;;3.40;;
4885;SDS011;2457;51.788;6.136;2023-03-01T10:54:40;6.83;;;4.00;;
4885;SDS011;2457;51.788;6.136;2023-03-01T10:57:10;6.43;;;2.97;;
4885;SDS011;2457;51.788;6.136;2023-03-01T10:59:37;10.10;;;4.50;;
4885;SDS011;2457;51.788;6.136;2023-03-01T11:05:35;6.93;;;3.77;;
4885;SDS011;2457;51.788;6.136;2023-03-01T11:07:18;8.10;;;4.00;;
4885;SDS011;2457;51.788;6.136;2023-03-01T11:09:45;10.13;;;3.87;;
4885;SDS011;2457;51.788;6.136;2023-03-01T11:12:16;9.30;;;4.83;;
4885;SDS011;2457;51.788;6.136;2023-03-01T11:14:52;6.73;;;4.20;;
4885;SDS011;2457;51.788;6.136;2023-03-01T11:17:21;9.33;;;3.87;;
4885;SDS011;2457;51.788;6.136;2023-03-01T11:20:00;8.13;;;3.60;;
4885;SDS011;2457;51.788;6.136;2023-03-01T11:22:27;7.17;;;3.37;;
4885;SDS011;2457;51.788;6.136;2023-03-01T11:24:55;8.07;;;3.57;;
4885;SDS011;2457;51.788;6.136;2023-03-01T11:27:24;10.13;;;4.10;;
4885;SDS011;2457;51.788;6.136;2023-03-01T11:29:58;15.90;;;5.07;;
4885;SDS011;2457;51.788;6.136;2023-03-01T11:32:21;7.90;;;3.77;;
4885;SDS011;2457;51.788;6.136;2023-03-01T11:34:54;7.00;;;3.90;;
4885;SDS011;2457;51.788;6.136;2023-03-01T11:40:03;6.50;;;3.43;;
4885;SDS011;2457;51.788;6.136;2023-03-01T11:45:06;6.10;;;3.27;;
4885;SDS011;2457;51.788;6.136;2023-03-01T11:50:28;6.93;;;3.50;;
4885;SDS011;2457;51.788;6.136;2023-03-01T11:55:39;8.00;;;4.07;;
4885;SDS011;2457;51.788;6.136;2023-03-01T12:00:43;7.40;;;4.10;;
4885;SDS011;2457;51.788;6.136;2023-03-01T12:08:19;9.80;;;4.30;;
4885;SDS011;2457;51.788;6.136;2023-03-01T12:10:57;6.37;;;3.50;;
4885;SDS011;2457;51.788;6.136;2023-03-01T12:13:27;7.70;;;3.90;;
4885;SDS011;2457;51.788;6.136;2023-03-01T12:18:30;9.00;;;3.90;;
4885;SDS011;2457;51.788;6.136;2023-03-01T12:21:03;9.17;;;4.00;;
4885;SDS011;2457;51.788;6.136;2023-03-01T12:28:52;8.80;;;4.17;;
4885;SDS011;2457;51.788;6.136;2023-03-01T12:39:14;9.17;;;4.77;;
4885;SDS011;2457;51.788;6.136;2023-03-01T12:49:44;8.67;;;4.37;;
4885;SDS011;2457;51.788;6.136;2023-03-01T12:52:16;7.90;;;4.40;;
4885;SDS011;2457;51.788;6.136;2023-03-01T12:54:44;7.53;;;4.23;;
4885;SDS011;2457;51.788;6.136;2023-03-01T12:57:34;9.40;;;4.20;;
4885;SDS011;2457;51.788;6.136;2023-03-01T12:59:47;8.30;;;4.33;;
4885;SDS011;2457;51.788;6.136;2023-03-01T13:07:36;11.97;;;5.10;;
4885;SDS011;2457;51.788;6.136;2023-03-01T13:10:14;14.30;;;4.63;;
4885;SDS011;2457;51.788;6.136;2023-03-01T13:18:02;10.53;;;4.73;;
4885;SDS011;2457;51.788;6.136;2023-03-01T13:31:09;11.27;;;4.60;;
4885;SDS011;2457;51.788;6.136;2023-03-01T13:33:41;9.10;;;5.10;;
4885;SDS011;2457;51.788;6.136;2023-03-01T13:36:08;11.27;;;4.90;;
4885;SDS011;2457;51.788;6.136;2023-03-01T13:41:13;8.10;;;4.73;;
4885;SDS011;2457;51.788;6.136;2023-03-01T13:43:42;8.43;;;4.77;;
4885;SDS011;2457;51.788;6.136;2023-03-01T13:46:23;12.53;;;4.90;;
4885;SDS011;2457;51.788;6.136;2023-03-01T13:48:51;7.83;;;4.50;;
4885;SDS011;2457;51.788;6.136;2023-03-01T13:51:27;10.30;;;4.67;;
4885;SDS011;2457;51.788;6.136;2023-03-01T13:53:50;9.70;;;5.07;;
4885;SDS011;2457;51.788;6.136;2023-03-01T13:56:24;10.40;;;4.93;;
4885;SDS011;2457;51.788;6.136;2023-03-01T13:58:51;9.70;;;4.67;;
4885;SDS011;2457;51.788;6.136;2023-03-01T14:01:26;11.90;;;5.77;;
4885;SDS011;2457;51.788;6.136;2023-03-01T14:03:54;12.80;;;4.67;;
4885;SDS011;2457;51.788;6.136;2023-03-01T14:06:27;12.83;;;4.73;;
4885;SDS011;2457;51.788;6.136;2023-03-01T14:08:59;9.10;;;5.10;;
4885;SDS011;2457;51.788;6.136;2023-03-01T14:13:54;7.60;;;4.70;;
4885;SDS011;2457;51.788;6.136;2023-03-01T14:19:15;8.20;;;4.77;;
4885;SDS011;2457;51.788;6.136;2023-03-01T14:21:43;9.67;;;5.20;;
4885;SDS011;2457;51.788;6.136;2023-03-01T14:24:17;9.90;;;5.53;;
4885;SDS011;2457;51.788;6.136;2023-03-01T14:26:45;7.90;;;4.40;;
4885;SDS011;2457;51.788;6.136;2023-03-01T14:29:25;8.37;;;5.20;;
4885;SDS011;2457;51.788;6.136;2023-03-01T14:31:52;9.13;;;4.90;;
4885;SDS011;2457;51.788;6.136;2023-03-01T14:34:21;9.60;;;5.43;;
4885;SDS011;2457;51.788;6.136;2023-03-01T14:36:48;7.63;;;4.70;;
4885;SDS011;2457;51.788;6.136;2023-03-01T14:39:16;9.70;;;5.20;;
4885;SDS011;2457;51.788;6.136;2023-03-01T14:41:44;10.73;;;4.33;;
4885;SDS011;2457;51.788;6.136;2023-03-01T14:44:14;7.70;;;4.20;;
4885;SDS011;2457;51.788;6.136;2023-03-01T14:46:41;9.90;;;5.50;;
4885;SDS011;2457;51.788;6.136;2023-03-01T14:49:11;6.57;;;4.10;;
4885;SDS011;2457;51.788;6.136;2023-03-01T14:51:39;11.90;;;5.00;;
4885;SDS011;2457;51.788;6.136;2023-03-01T14:54:27;8.30;;;4.70;;
4885;SDS011;2457;51.788;6.136;2023-03-01T14:56:58;9.97;;;4.87;;
4885;SDS011;2457;51.788;6.136;2023-03-01T14:59:23;7.97;;;4.30;;
4885;SDS011;2457;51.788;6.136;2023-03-01T15:01:51;9.23;;;5.30;;
4885;SDS011;2457;51.788;6.136;2023-03-01T15:04:19;10.30;;;5.17;;
4885;SDS011;2457;51.788;6.136;2023-03-01T15:06:47;8.53;;;4.67;;
4885;SDS011;2457;51.788;6.136;2023-03-01T15:09:14;12.57;;;5.03;;
4885;SDS011;2457;51.788;6.136;2023-03-01T15:11:43;10.17;;;5.07;;
4885;SDS011;2457;51.788;6.136;2023-03-01T15:14:53;8.50;;;4.70;;
4885;SDS011;2457;51.788;6.136;2023-03-01T15:16:42;7.43;;;4.27;;
4885;SDS011;2457;51.788;6.136;2023-03-01T15:19:15;7.87;;;3.67;;
4885;SDS011;2457;51.788;6.136;2023-03-01T15:21:39;10.20;;;4.43;;
4885;SDS011;2457;51.788;6.136;2023-03-01T15:24:13;8.17;;;4.20;;
4885;SDS011;2457;51.788;6.136;2023-03-01T15:26:39;8.80;;;4.50;;
4885;SDS011;2457;51.788;6.136;2023-03-01T15:29:10;8.17;;;4.50;;
4885;SDS011;2457;51.788;6.136;2023-03-01T15:31:36;7.37;;;4.13;;
4885;SDS011;2457;51.788;6.136;2023-03-01T15:34:20;7.60;;;3.70;;
4885;SDS011;2457;51.788;6.136;2023-03-01T15:36:42;9.70;;;4.20;;
4885;SDS011;2457;51.788;6.136;2023-03-01T15:39:33;10.47;;;3.97;;
4885;SDS011;2457;51.788;6.136;2023-03-01T15:41:57;7.33;;;4.03;;
4885;SDS011;2457;51.788;6.136;2023-03-01T15:44:25;12.93;;;5.10;;
4885;SDS011;2457;51.788;6.136;2023-03-01T15:46:53;7.93;;;4.03;;
4885;SDS011;2457;51.788;6.136;2023-03-01T15:49:33;7.00;;;3.70;;
4885;SDS011;2457;51.788;6.136;2023-03-01T15:51:58;7.23;;;4.30;;
4885;SDS011;2457;51.788;6.136;2023-03-01T15:54:25;7.90;;;4.30;;
4885;SDS011;2457;51.788;6.136;2023-03-01T15:56:54;9.83;;;4.33;;
4885;SDS011;2457;51.788;6.136;2023-03-01T15:59:21;7.13;;;3.87;;
4885;SDS011;2457;51.788;6.136;2023-03-01T16:01:49;8.47;;;3.93;;
4885;SDS011;2457;51.788;6.136;2023-03-01T16:04:17;8.23;;;4.27;;
4885;SDS011;2457;51.788;6.136;2023-03-01T16:06:49;10.33;;;4.23;;
4885;SDS011;2457;51.788;6.136;2023-03-01T16:09:18;5.70;;;3.63;;
4885;SDS011;2457;51.788;6.136;2023-03-01T16:11:46;7.20;;;4.10;;
4885;SDS011;2457;51.788;6.136;2023-03-01T16:14:14;9.20;;;4.43;;
4885;SDS011;2457;51.788;6.136;2023-03-01T16:16:42;6.30;;;3.80;;
4885;SDS011;2457;51.788;6.136;2023-03-01T16:19:10;8.83;;;4.50;;
4885;SDS011;2457;51.788;6.136;2023-03-01T16:21:37;7.93;;;3.23;;
4885;SDS011;2457;51.788;6.136;2023-03-01T16:24:05;8.17;;;3.90;;
4885;SDS011;2457;51.788;6.136;2023-03-01T16:26:32;7.67;;;4.00;;
4885;SDS011;2457;51.788;6.136;2023-03-01T16:28:59;7.77;;;3.30;;
4885;SDS011;2457;51.788;6.136;2023-03-01T16:31:27;6.23;;;3.27;;
4885;SDS011;2457;51.788;6.136;2023-03-01T16:33:55;10.33;;;4.10;;
4885;SDS011;2457;51.788;6.136;2023-03-01T16:36:23;7.30;;;3.80;;
4885;SDS011;2457;51.788;6.136;2023-03-01T16:38:51;7.83;;;3.57;;
4885;SDS011;2457;51.788;6.136;2023-03-01T16:41:19;7.90;;;4.00;;
4885;SDS011;2457;51.788;6.136;2023-03-01T16:43:47;10.03;;;3.40;;
4885;SDS011;2457;51.788;6.136;2023-03-01T16:46:16;8.30;;;4.20;;
4885;SDS011;2457;51.788;6.136;2023-03-01T16:48:43;8.83;;;3.30;;
4885;SDS011;2457;51.788;6.136;2023-03-01T16:51:11;7.07;;;3.63;;
4885;SDS011;2457;51.788;6.136;2023-03-01T16:53:38;7.90;;;3.20;;
4885;SDS011;2457;51.788;6.136;2023-03-01T16:56:08;6.70;;;3.10;;
4885;SDS011;2457;51.788;6.136;2023-03-01T16:58:36;6.87;;;3.40;;
4885;SDS011;2457;51.788;6.136;2023-03-01T17:01:11;7.80;;;3.37;;